createdAt,value
2024-04-18T00:00:23.279Z,60.75
2024-04-18T00:01:23.416Z,60.75
2024-04-18T00:02:23.449Z,59.36
2024-04-18T00:03:23.606Z,60.19
2024-04-18T00:04:23.693Z,60.06
2024-04-18T00:05:23.799Z,61.21
2024-04-18T00:06:23.842Z,59.55
2024-04-18T00:07:23.884Z,60.83
2024-04-18T00:08:23.954Z,59.71
2024-04-18T00:09:24.096Z,60.18
2024-04-18T00:10:24.155Z,59.64
2024-04-18T00:11:24.304Z,58.57
2024-04-18T00:12:24.368Z,59.69
2024-04-18T00:13:24.418Z,59.12
2024-04-18T00:14:24.520Z,60.19
2024-04-18T00:15:24.637Z,57.70
2024-04-18T00:16:24.706Z,58.00
2024-04-18T00:17:24.890Z,58.77
2024-04-18T00:18:24.963Z,58.73
2024-04-18T00:19:24.979Z,59.47
2024-04-18T00:20:25.074Z,58.86
2024-04-18T00:21:25.175Z,59.60
2024-04-18T00:22:25.253Z,59.30
2024-04-18T00:23:25.347Z,59.68
2024-04-18T00:24:25.503Z,58.57
2024-04-18T00:25:25.483Z,58.31
2024-04-18T00:26:25.588Z,59.09
2024-04-18T00:27:25.695Z,59.14
2024-04-18T00:28:25.755Z,58.73
2024-04-18T00:29:25.866Z,58.92
2024-04-18T00:30:25.961Z,58.42
2024-04-18T00:31:26.044Z,59.01
2024-04-18T00:32:26.149Z,59.33
2024-04-18T00:33:26.311Z,58.34
2024-04-18T00:34:26.308Z,60.62
2024-04-18T00:35:26.413Z,57.95
2024-04-18T00:36:26.473Z,59.48
2024-04-18T00:37:26.556Z,61.34
2024-04-18T00:38:26.669Z,59.80
2024-04-18T00:39:26.834Z,59.08
2024-04-18T00:40:26.813Z,60.63
2024-04-18T00:41:26.932Z,60.25
2024-04-18T00:42:27.102Z,59.33
2024-04-18T00:43:27.080Z,60.10
2024-04-18T00:44:27.193Z,60.00
2024-04-18T00:45:27.318Z,59.99
2024-04-18T00:46:27.410Z,59.24
2024-04-18T00:47:27.574Z,59.52
2024-04-18T00:48:27.744Z,60.77
2024-04-18T00:49:27.674Z,60.34
2024-04-18T00:50:27.731Z,60.54
2024-04-18T00:51:27.864Z,61.63
2024-04-18T00:52:27.905Z,60.32
2024-04-18T00:53:27.998Z,59.21
2024-04-18T00:54:28.144Z,60.26
2024-04-18T00:55:28.157Z,59.92
2024-04-18T00:56:28.290Z,59.36
2024-04-18T00:57:28.372Z,60.24
2024-04-18T00:58:28.483Z,61.05
2024-04-18T00:59:28.569Z,60.51
2024-04-18T01:00:28.683Z,59.38
2024-04-18T01:01:28.787Z,61.18
2024-04-18T01:02:28.816Z,60.34
2024-04-18T01:03:28.954Z,59.82
2024-04-18T01:04:29.074Z,60.22
2024-04-18T01:05:29.075Z,60.63
2024-04-18T01:06:29.213Z,60.79
2024-04-18T01:07:29.282Z,61.53
2024-04-18T01:08:29.345Z,60.00
2024-04-18T01:09:29.486Z,59.60
2024-04-18T01:10:29.544Z,61.63
2024-04-18T01:11:29.642Z,62.35
2024-04-18T01:12:29.837Z,61.06
2024-04-18T01:13:29.827Z,59.92
2024-04-18T01:14:29.939Z,60.95
2024-04-18T01:15:30.100Z,60.92
2024-04-18T01:16:30.178Z,60.91
2024-04-18T01:17:30.277Z,61.00
2024-04-18T01:18:30.289Z,60.40
2024-04-18T01:19:30.387Z,61.45
2024-04-18T01:20:30.450Z,61.49
2024-04-18T01:21:30.523Z,61.05
2024-04-18T01:22:30.620Z,60.88
2024-04-18T01:23:30.735Z,60.50
2024-04-18T01:24:30.932Z,59.89
2024-04-18T01:25:31.018Z,60.58
2024-04-18T01:26:31.035Z,61.01
2024-04-18T01:27:31.093Z,60.35
2024-04-18T01:28:31.178Z,60.09
2024-04-18T01:29:31.278Z,60.66
2024-04-18T01:30:31.423Z,61.24
2024-04-18T01:31:31.484Z,60.70
2024-04-18T01:32:31.569Z,60.08
2024-04-18T01:33:31.694Z,58.99
2024-04-18T01:34:31.967Z,57.85
2024-04-18T01:35:31.798Z,59.45
2024-04-18T01:36:31.950Z,60.91
2024-04-18T01:37:32.015Z,60.35
2024-04-18T01:38:32.106Z,59.37
2024-04-18T01:39:32.330Z,58.69
2024-04-18T01:40:34.798Z,58.92
2024-04-18T01:41:32.298Z,58.76
2024-04-18T01:42:32.320Z,58.19
2024-04-18T01:43:32.289Z,58.79
2024-04-18T01:44:32.293Z,59.24
2024-04-18T01:45:32.328Z,59.11
2024-04-18T01:46:32.314Z,58.91
2024-04-18T01:47:32.340Z,57.65
2024-04-18T01:48:32.373Z,58.50
2024-04-18T01:49:32.334Z,57.18
2024-04-18T01:50:32.304Z,57.88
2024-04-18T01:51:32.342Z,57.87
2024-04-18T01:52:32.301Z,57.56
2024-04-18T01:53:32.305Z,57.34
2024-04-18T01:54:32.351Z,56.95
2024-04-18T01:55:32.340Z,56.44
2024-04-18T01:56:32.339Z,55.22
2024-04-18T01:57:32.348Z,56.81
2024-04-18T01:58:32.324Z,56.45
2024-04-18T01:59:32.314Z,54.92
2024-04-18T02:00:32.408Z,55.07
2024-04-18T02:01:32.395Z,54.44
2024-04-18T02:02:32.327Z,54.96
2024-04-18T02:03:32.405Z,53.93
2024-04-18T02:04:32.414Z,54.72
2024-04-18T02:05:32.327Z,54.37
2024-04-18T02:06:32.369Z,55.55
2024-04-18T02:07:32.327Z,54.83
2024-04-18T02:08:32.330Z,54.63
2024-04-18T02:09:32.362Z,53.84
2024-04-18T02:10:32.342Z,54.55
2024-04-18T02:11:32.335Z,54.79
2024-04-18T02:12:32.364Z,53.98
2024-04-18T02:13:32.346Z,53.42
2024-04-18T02:14:32.352Z,53.53
2024-04-18T02:15:32.420Z,55.68
2024-04-18T02:16:32.357Z,53.36
2024-04-18T02:17:32.414Z,52.67
2024-04-18T02:18:32.434Z,55.26
2024-04-18T02:19:32.372Z,52.34
2024-04-18T02:20:32.362Z,52.73
2024-04-18T02:21:32.356Z,54.15
2024-04-18T02:22:32.378Z,53.25
2024-04-18T02:23:32.462Z,52.32
2024-04-18T02:24:32.540Z,52.17
2024-04-18T02:25:32.612Z,52.53
2024-04-18T02:26:32.682Z,52.64
2024-04-18T02:27:32.794Z,51.54
2024-04-18T02:28:32.817Z,52.25
2024-04-18T02:29:32.919Z,53.17
2024-04-18T02:30:33.027Z,52.78
2024-04-18T02:31:33.055Z,52.89
2024-04-18T02:32:33.261Z,52.52
2024-04-18T02:33:33.318Z,52.04
2024-04-18T02:34:33.384Z,52.38
2024-04-18T02:35:33.384Z,51.81
2024-04-18T02:36:33.498Z,52.35
2024-04-18T02:37:33.554Z,50.27
2024-04-18T02:38:33.631Z,53.17
2024-04-18T02:39:33.876Z,52.35
2024-04-18T02:40:33.817Z,51.79
2024-04-18T02:41:33.895Z,52.44
2024-04-18T02:42:34.021Z,51.21
2024-04-18T02:43:34.028Z,51.83
2024-04-18T02:44:34.098Z,51.87
2024-04-18T02:45:34.248Z,51.99
2024-04-18T02:46:34.278Z,51.93
2024-04-18T02:47:34.598Z,51.13
2024-04-18T02:48:34.673Z,50.10
2024-04-18T02:49:34.519Z,53.20
2024-04-18T02:50:34.620Z,53.54
2024-04-18T02:51:34.677Z,51.35
2024-04-18T02:52:34.762Z,50.96
2024-04-18T02:53:34.816Z,51.79
2024-04-18T02:54:34.965Z,52.52
2024-04-18T02:55:35.057Z,52.17
2024-04-18T02:56:35.109Z,51.83
2024-04-18T02:57:35.230Z,51.87
2024-04-18T02:58:35.265Z,53.37
2024-04-18T02:59:35.319Z,50.60
2024-04-18T03:00:35.485Z,51.57
2024-04-18T03:01:35.549Z,51.83
2024-04-18T03:02:35.704Z,51.87
2024-04-18T03:03:35.747Z,50.75
2024-04-18T03:04:35.802Z,50.84
2024-04-18T03:05:35.881Z,52.45
2024-04-18T03:06:35.984Z,51.53
2024-04-18T03:07:36.062Z,51.23
2024-04-18T03:08:36.121Z,51.20
2024-04-18T03:09:36.192Z,52.54
2024-04-18T03:10:36.277Z,51.72
2024-04-18T03:11:36.486Z,50.38
2024-04-18T03:12:36.452Z,51.25
2024-04-18T03:13:36.531Z,50.95
2024-04-18T03:14:36.609Z,52.37
2024-04-18T03:15:36.713Z,50.14
2024-04-18T03:16:36.781Z,51.58
2024-04-18T03:17:36.922Z,51.27
2024-04-18T03:18:37.061Z,49.98
2024-04-18T03:19:37.036Z,51.38
2024-04-18T03:20:37.125Z,51.06
2024-04-18T03:21:37.214Z,51.62
2024-04-18T03:22:37.293Z,50.90
2024-04-18T03:23:37.402Z,51.70
2024-04-18T03:24:37.562Z,51.18
2024-04-18T03:25:37.574Z,51.90
2024-04-18T03:26:37.745Z,49.93
2024-04-18T03:27:37.826Z,50.35
2024-04-18T03:28:37.867Z,51.01
2024-04-18T03:29:37.925Z,52.22
2024-04-18T03:30:38.053Z,51.34
2024-04-18T03:31:38.126Z,50.61
2024-04-18T03:32:38.352Z,51.84
2024-04-18T03:33:38.308Z,51.06
2024-04-18T03:34:38.403Z,52.57
2024-04-18T03:35:38.514Z,50.50
2024-04-18T03:36:38.589Z,50.34
2024-04-18T03:37:38.894Z,51.06
2024-04-18T03:38:38.768Z,51.59
2024-04-18T03:39:38.920Z,52.57
2024-04-18T03:40:38.950Z,51.96
2024-04-18T03:41:39.054Z,52.08
2024-04-18T03:42:39.226Z,51.32
2024-04-18T03:43:39.230Z,52.72
2024-04-18T03:44:39.327Z,51.01
2024-04-18T03:45:39.459Z,50.54
2024-04-18T03:46:39.477Z,51.21
2024-04-18T03:47:39.596Z,51.36
2024-04-18T03:48:39.771Z,50.68
2024-04-18T03:49:39.748Z,51.48
2024-04-18T03:50:39.802Z,49.68
2024-04-18T03:51:39.932Z,51.03
2024-04-18T03:52:40.037Z,52.04
2024-04-18T03:53:40.114Z,50.00
2024-04-18T03:54:55.733Z,50.96
2024-04-18T03:55:41.167Z,51.03
2024-04-18T03:56:40.192Z,51.23
2024-04-18T03:57:40.227Z,51.10
2024-04-18T03:58:40.177Z,51.77
2024-04-18T03:59:40.206Z,50.46
2024-04-18T04:00:42.792Z,50.62
2024-04-18T04:01:40.232Z,51.95
2024-04-18T04:02:40.373Z,51.90
2024-04-18T04:03:40.273Z,50.56
2024-04-18T04:04:40.195Z,51.59
2024-04-18T04:05:40.185Z,52.02
2024-04-18T04:06:40.230Z,51.31
2024-04-18T04:07:40.228Z,52.77
2024-04-18T04:08:40.202Z,51.87
2024-04-18T04:09:40.258Z,50.79
2024-04-18T04:10:40.217Z,50.83
2024-04-18T04:11:40.214Z,51.26
2024-04-18T04:12:40.240Z,51.71
2024-04-18T04:13:40.230Z,51.46
2024-04-18T04:14:40.213Z,52.96
2024-04-18T04:15:40.266Z,51.22
2024-04-18T04:16:40.227Z,50.48
2024-04-18T04:17:40.304Z,52.01
2024-04-18T04:18:40.341Z,50.22
2024-04-18T04:19:40.203Z,51.77
2024-04-18T04:20:40.229Z,52.01
2024-04-18T04:21:40.248Z,53.36
2024-04-18T04:22:40.276Z,51.47
2024-04-18T04:23:40.246Z,51.44
2024-04-18T04:24:40.263Z,51.24
2024-04-18T04:25:40.242Z,51.17
2024-04-18T04:26:40.239Z,52.20
2024-04-18T04:27:40.272Z,51.61
2024-04-18T04:28:40.255Z,51.50
2024-04-18T04:29:40.266Z,53.13
2024-04-18T04:30:40.353Z,52.42
2024-04-18T04:31:40.277Z,53.41
2024-04-18T04:32:40.284Z,51.99
2024-04-18T04:33:40.351Z,53.39
2024-04-18T04:34:40.251Z,51.93
2024-04-18T04:35:40.283Z,52.17
2024-04-18T04:36:40.339Z,52.76
2024-04-18T04:37:40.256Z,54.12
2024-04-18T04:38:40.283Z,54.66
2024-04-18T04:39:40.371Z,54.37
2024-04-18T04:40:40.447Z,54.72
2024-04-18T04:41:40.573Z,54.50
2024-04-18T04:42:40.651Z,55.11
2024-04-18T04:43:40.706Z,54.38
2024-04-18T04:44:48.486Z,50.00
2024-04-18T04:45:48.581Z,50.00
2024-04-18T04:46:48.482Z,50.00
2024-04-18T04:47:48.542Z,50.00
2024-04-18T04:48:48.532Z,50.00
2024-04-18T04:49:48.479Z,50.21
2024-04-18T04:50:48.479Z,50.23
2024-04-18T04:51:48.590Z,50.06
2024-04-18T04:52:48.490Z,51.51
2024-04-18T04:53:50.553Z,53.46
2024-04-18T04:54:48.796Z,53.51
2024-04-18T04:55:48.513Z,51.31
2024-04-18T04:56:48.523Z,53.89
2024-04-18T04:57:48.504Z,52.15
2024-04-18T04:58:48.518Z,54.38
2024-04-18T04:59:48.517Z,51.79
2024-04-18T05:01:11.120Z,52.22
2024-04-18T05:01:48.499Z,52.54
2024-04-18T05:02:49.991Z,53.84
2024-04-18T05:03:48.601Z,55.16
2024-04-18T05:04:48.512Z,57.22
2024-04-18T05:05:48.517Z,57.88
2024-04-18T05:06:48.606Z,59.64
2024-04-18T05:07:49.575Z,56.72
2024-04-18T05:08:48.517Z,56.83
2024-04-18T05:09:48.613Z,54.46
2024-04-18T05:10:48.580Z,53.78
2024-04-18T05:11:48.545Z,51.66
2024-04-18T05:12:48.622Z,53.55
2024-04-18T05:13:48.546Z,52.23
2024-04-18T05:14:48.578Z,52.03
2024-04-18T05:15:48.641Z,54.54
2024-04-18T05:16:48.764Z,51.94
2024-04-18T05:17:48.749Z,53.41
2024-04-18T05:18:48.837Z,53.78
2024-04-18T05:19:48.844Z,52.29
2024-04-18T05:20:48.931Z,51.82
2024-04-18T05:21:49.241Z,53.45
2024-04-18T05:22:49.160Z,52.91
2024-04-18T05:23:49.245Z,54.06
2024-04-18T05:24:49.543Z,53.12
2024-04-18T05:25:49.443Z,52.03
2024-04-18T05:26:49.530Z,52.43
2024-04-18T05:27:49.698Z,54.12
2024-04-18T05:28:49.761Z,53.86
2024-04-18T05:29:49.829Z,54.62
2024-04-18T05:30:50.062Z,53.39
2024-04-18T05:31:50.053Z,51.35
2024-04-18T05:32:50.277Z,54.97
2024-04-18T05:33:50.246Z,52.12
2024-04-18T05:34:50.343Z,52.19
2024-04-18T05:35:50.484Z,51.46
2024-04-18T05:36:50.659Z,55.26
2024-04-18T05:37:50.684Z,54.82
2024-04-18T05:38:50.695Z,58.06
2024-04-18T05:39:50.801Z,62.92
2024-04-18T05:40:50.878Z,63.87
2024-04-18T05:41:50.963Z,72.33
2024-04-18T05:42:51.095Z,77.41
2024-04-18T05:43:51.048Z,81.77
2024-04-18T05:44:51.124Z,91.41
2024-04-18T05:46:13.732Z,97.27
2024-04-18T05:46:51.210Z,97.76
2024-04-18T05:47:51.261Z,101.21
2024-04-18T05:48:51.277Z,108.40
2024-04-18T05:49:51.219Z,122.28
2024-04-18T05:50:51.206Z,142.36
2024-04-18T05:51:51.213Z,157.41
2024-04-18T05:52:52.784Z,164.80
2024-04-18T05:53:51.237Z,174.87
2024-04-18T05:54:51.605Z,182.65
2024-04-18T05:55:52.135Z,192.36
2024-04-18T05:56:51.219Z,200.00
2024-04-18T05:57:52.298Z,200.52
2024-04-18T05:58:51.229Z,203.02
2024-04-18T05:59:51.236Z,209.46
2024-04-18T06:00:51.280Z,221.12
2024-04-18T06:01:51.284Z,237.83
2024-04-18T06:02:51.750Z,225.67
2024-04-18T06:03:51.448Z,208.72
2024-04-18T06:04:51.316Z,200.40
2024-04-18T06:05:51.278Z,200.00
2024-04-18T06:06:52.294Z,200.07
2024-04-18T06:07:51.763Z,199.56
2024-04-18T06:08:51.303Z,199.64
2024-04-18T06:09:51.369Z,200.47
2024-04-18T06:10:51.327Z,199.54
2024-04-18T06:11:51.331Z,199.85
2024-04-18T06:12:51.504Z,200.00
2024-04-18T06:13:51.535Z,200.00
2024-04-18T06:14:51.611Z,198.97
2024-04-18T06:15:51.839Z,199.95
2024-04-18T06:16:51.775Z,200.00
2024-04-18T06:17:51.866Z,199.57
2024-04-18T06:18:52.344Z,199.94
2024-04-18T06:19:52.031Z,199.94
2024-04-18T06:20:52.113Z,199.96
2024-04-18T06:21:53.816Z,200.00
2024-04-18T06:22:52.255Z,198.75
2024-04-18T06:23:52.738Z,200.00
2024-04-18T06:24:52.341Z,199.47
2024-04-18T06:25:52.483Z,200.00
2024-04-18T06:26:52.402Z,199.27
2024-04-18T06:27:52.563Z,199.58
2024-04-18T06:28:52.577Z,199.75
2024-04-18T06:29:52.580Z,199.85
2024-04-18T06:30:52.682Z,199.86
2024-04-18T06:31:52.645Z,199.24
2024-04-18T06:32:52.739Z,199.78
2024-04-18T06:33:52.813Z,199.78
2024-04-18T06:34:52.748Z,200.00
2024-04-18T06:35:52.822Z,199.69
2024-04-18T06:36:52.923Z,199.78
2024-04-18T06:37:52.900Z,198.67
2024-04-18T06:38:52.950Z,198.48
2024-04-18T06:39:52.982Z,197.43
2024-04-18T06:40:53.102Z,196.09
2024-04-18T06:41:53.142Z,193.43
2024-04-18T06:42:53.336Z,191.82
2024-04-18T06:43:53.722Z,190.84
2024-04-18T06:44:53.439Z,190.00
2024-04-18T06:45:53.652Z,189.16
2024-04-18T06:47:00.429Z,191.14
2024-04-18T06:47:54.767Z,191.21
2024-04-18T06:48:53.640Z,191.43
2024-04-18T06:49:53.638Z,192.73
2024-04-18T06:50:53.750Z,193.60
2024-04-18T06:51:53.706Z,195.92
2024-04-18T06:52:53.692Z,196.70
2024-04-18T06:53:53.765Z,199.35
2024-04-18T06:54:53.651Z,199.71
2024-04-18T06:55:53.634Z,199.69
2024-04-18T06:56:53.684Z,199.56
2024-04-18T06:57:54.035Z,199.61
2024-04-18T06:58:53.895Z,199.94
2024-04-18T06:59:53.994Z,199.63
2024-04-18T07:00:54.272Z,198.98
2024-04-18T07:01:54.163Z,199.39
2024-04-18T07:02:54.299Z,199.86
2024-04-18T07:03:54.517Z,199.29
2024-04-18T07:04:54.387Z,199.42
2024-04-18T07:05:54.399Z,191.96
2024-04-18T07:06:54.542Z,176.52
2024-04-18T07:07:54.456Z,162.48
2024-04-18T07:08:54.794Z,150.25
2024-04-18T07:09:54.523Z,142.74
2024-04-18T07:10:54.855Z,138.97
2024-04-18T07:11:54.643Z,136.68
2024-04-18T07:12:54.692Z,137.30
2024-04-18T07:13:54.656Z,136.18
2024-04-18T07:14:55.706Z,135.57
2024-04-18T07:15:54.848Z,136.48
2024-04-18T07:16:54.854Z,136.05
2024-04-18T07:17:54.987Z,137.84
2024-04-18T07:18:55.262Z,137.58
2024-04-18T07:19:55.111Z,138.01
2024-04-18T07:20:55.227Z,139.33
2024-04-18T07:21:55.489Z,140.16
2024-04-18T07:22:55.513Z,140.77
2024-04-18T07:23:57.161Z,140.61
2024-04-18T07:24:55.547Z,141.42
2024-04-18T07:25:55.490Z,140.83
2024-04-18T07:26:56.927Z,140.80
2024-04-18T07:27:55.594Z,140.87
2024-04-18T07:28:55.536Z,141.22
2024-04-18T07:29:55.553Z,142.05
2024-04-18T07:30:55.561Z,143.32
2024-04-18T07:31:55.541Z,140.07
2024-04-18T07:32:55.650Z,128.47
2024-04-18T07:33:55.885Z,122.48
2024-04-18T07:34:55.553Z,118.78
2024-04-18T07:35:55.502Z,114.98
2024-04-18T07:36:55.604Z,108.46
2024-04-18T07:37:55.490Z,104.78
2024-04-18T07:38:55.817Z,102.29
2024-04-18T07:39:55.589Z,97.44
2024-04-18T07:40:55.527Z,95.49
2024-04-18T07:41:55.515Z,95.40
2024-04-18T07:42:55.777Z,96.44
2024-04-18T07:43:55.726Z,99.67
2024-04-18T07:44:55.821Z,101.35
2024-04-18T07:45:55.982Z,105.05
2024-04-18T07:46:56.021Z,108.21
2024-04-18T07:47:56.130Z,110.43
2024-04-18T07:48:56.318Z,110.06
2024-04-18T07:49:56.221Z,111.91
2024-04-18T07:50:56.309Z,111.41
2024-04-18T07:51:57.583Z,111.97
2024-04-18T07:53:03.781Z,111.79
2024-04-18T07:53:57.461Z,111.85
2024-04-18T07:54:56.569Z,111.95
2024-04-18T07:55:56.450Z,112.05
2024-04-18T07:56:57.049Z,111.36
2024-04-18T07:57:56.968Z,110.79
2024-04-18T07:58:57.038Z,111.14
2024-04-18T07:59:57.120Z,110.54
2024-04-18T08:00:57.618Z,111.09
2024-04-18T08:01:58.204Z,110.56
2024-04-18T08:02:58.375Z,108.34
2024-04-18T08:04:09.024Z,108.13
2024-04-18T08:05:00.493Z,108.17
2024-04-18T08:06:00.262Z,108.14
2024-04-18T08:06:58.848Z,108.26
2024-04-18T08:07:59.911Z,108.44
2024-04-18T08:08:58.947Z,108.19
2024-04-18T08:10:00.153Z,108.15
2024-04-18T08:11:15.473Z,108.15
2024-04-18T08:13:00.503Z,108.13
2024-04-18T08:14:00.204Z,107.54
2024-04-18T08:15:00.867Z,106.06
2024-04-18T08:17:32.073Z,50.00
2024-04-18T08:18:31.846Z,50.00
2024-04-18T08:19:31.826Z,50.00
2024-04-18T08:20:31.801Z,50.00
2024-04-18T08:21:31.935Z,50.00
2024-04-18T08:22:31.801Z,50.00
2024-04-18T08:23:31.796Z,52.20
2024-04-18T08:24:31.827Z,53.18
2024-04-18T08:25:31.815Z,51.40
2024-04-18T08:26:31.836Z,50.32
2024-04-18T08:27:31.873Z,50.24
2024-04-18T08:28:31.839Z,52.65
2024-04-18T08:29:31.841Z,50.36
2024-04-18T08:30:31.837Z,52.74
2024-04-18T08:31:31.867Z,54.25
2024-04-18T08:32:31.870Z,53.10
2024-04-18T08:33:32.012Z,50.91
2024-04-18T08:34:33.178Z,51.51
2024-04-18T08:35:31.824Z,52.86
2024-04-18T08:36:31.941Z,53.75
2024-04-18T08:37:31.883Z,55.68
2024-04-18T08:38:31.988Z,55.07
2024-04-18T08:39:32.140Z,58.74
2024-04-18T08:40:31.860Z,61.10
2024-04-18T08:41:35.212Z,60.23
2024-04-18T08:42:32.017Z,60.35
2024-04-18T08:43:31.914Z,61.17
2024-04-18T08:44:32.010Z,61.49
2024-04-18T08:45:31.995Z,65.80
2024-04-18T08:46:31.927Z,67.65
2024-04-18T08:47:32.899Z,67.21
2024-04-18T08:48:32.124Z,72.24
2024-04-18T08:49:32.478Z,70.65
2024-04-18T08:50:32.045Z,70.44
2024-04-18T08:51:32.096Z,70.94
2024-04-18T08:52:35.044Z,70.41
2024-04-18T08:53:32.076Z,75.56
2024-04-18T08:54:32.520Z,74.25
2024-04-18T08:55:32.079Z,78.03
2024-04-18T08:56:32.066Z,81.69
2024-04-18T08:57:32.175Z,85.68
2024-04-18T08:58:32.059Z,85.85
2024-04-18T08:59:32.463Z,87.42
2024-04-18T09:00:32.112Z,90.36
2024-04-18T09:01:32.079Z,90.92
2024-04-18T09:02:32.159Z,93.32
2024-04-18T09:03:32.159Z,93.59
2024-04-18T09:04:32.128Z,95.17
2024-04-18T09:05:33.208Z,98.34
2024-04-18T09:06:32.171Z,99.21
2024-04-18T09:07:32.082Z,100.52
2024-04-18T09:08:32.114Z,100.19
2024-04-18T09:09:32.578Z,101.77
2024-04-18T09:10:32.929Z,102.73
2024-04-18T09:11:33.791Z,105.04
2024-04-18T09:12:32.140Z,103.19
2024-04-18T09:13:32.115Z,104.84
2024-04-18T09:14:32.108Z,107.94
2024-04-18T09:15:32.164Z,107.06
2024-04-18T09:16:32.108Z,108.45
2024-04-18T09:17:32.192Z,106.66
2024-04-18T09:18:32.172Z,107.33
2024-04-18T09:19:32.127Z,105.02
2024-04-18T09:20:32.104Z,107.69
2024-04-18T09:21:33.004Z,112.05
2024-04-18T09:22:32.129Z,113.34
2024-04-18T09:23:32.131Z,120.02
2024-04-18T09:24:32.661Z,133.89
2024-04-18T09:25:34.598Z,133.39
2024-04-18T09:26:32.194Z,131.12
2024-04-18T09:27:32.259Z,129.09
2024-04-18T09:28:32.196Z,128.23
2024-04-18T09:29:32.170Z,125.62
2024-04-18T09:30:32.216Z,129.12
2024-04-18T09:31:38.301Z,127.68
2024-04-18T09:32:33.248Z,128.05
2024-04-18T09:33:32.332Z,128.99
2024-04-18T09:34:32.178Z,131.70
2024-04-18T09:35:34.590Z,137.51
2024-04-18T09:36:32.268Z,147.34
2024-04-18T09:37:32.296Z,150.97
2024-04-18T09:38:32.330Z,152.46
2024-04-18T09:39:32.406Z,152.68
2024-04-18T09:40:32.411Z,152.10
2024-04-18T09:41:32.499Z,118.38
2024-04-18T09:42:32.582Z,80.67
2024-04-18T09:43:32.553Z,49.74
2024-04-18T09:44:33.036Z,46.17
2024-04-18T09:45:32.606Z,45.58
2024-04-18T09:46:32.672Z,50.00
2024-04-18T09:47:32.701Z,49.91
2024-04-18T09:48:32.820Z,52.90
2024-04-18T09:49:32.840Z,58.29
2024-04-18T09:50:32.755Z,72.77
2024-04-18T09:51:32.913Z,93.84
2024-04-18T09:52:32.840Z,101.69
2024-04-18T09:53:32.995Z,107.70
2024-04-18T09:54:33.610Z,116.91
2024-04-18T09:55:33.176Z,127.57
2024-04-18T09:56:33.155Z,135.99
2024-04-18T09:57:33.307Z,145.98
2024-04-18T09:58:33.330Z,153.58
2024-04-18T09:59:33.533Z,165.62
2024-04-18T10:00:33.528Z,175.74
2024-04-18T10:01:33.714Z,182.16
2024-04-18T10:02:33.746Z,190.98
2024-04-18T10:03:33.933Z,194.95
2024-04-18T10:04:33.906Z,200.00
2024-04-18T10:05:34.036Z,200.00
2024-04-18T10:06:34.192Z,199.87
2024-04-18T10:07:34.212Z,200.00
2024-04-18T10:08:34.276Z,199.36
2024-04-18T10:09:34.508Z,199.19
2024-04-18T10:10:34.495Z,200.00
2024-04-18T10:11:34.615Z,199.82
2024-04-18T10:12:34.743Z,199.79
2024-04-18T10:13:40.928Z,199.13
2024-04-18T10:14:34.786Z,199.37
2024-04-18T10:15:37.426Z,200.30
2024-04-18T10:16:35.432Z,200.49
2024-04-18T10:17:34.805Z,184.06
2024-04-18T10:18:34.895Z,177.68
2024-04-18T10:19:35.107Z,175.55
2024-04-18T10:20:34.788Z,178.89
2024-04-18T10:21:43.171Z,180.17
2024-04-18T10:23:35.443Z,180.36
2024-04-18T10:24:34.836Z,181.54
2024-04-18T10:25:35.060Z,181.56
2024-04-18T10:26:34.877Z,182.05
2024-04-18T10:27:35.160Z,183.93
2024-04-18T10:28:34.825Z,182.38
2024-04-18T10:29:34.851Z,184.41
2024-04-18T10:30:35.065Z,185.01
2024-04-18T10:31:34.934Z,188.40
2024-04-18T10:32:34.895Z,187.68
2024-04-18T10:33:34.981Z,188.88
2024-04-18T10:34:35.075Z,187.82
2024-04-18T10:35:35.049Z,189.43
2024-04-18T10:36:34.871Z,190.45
2024-04-18T10:37:34.836Z,192.93
2024-04-18T10:38:34.941Z,194.62
2024-04-18T10:39:35.088Z,193.16
2024-04-18T10:40:35.583Z,191.11
2024-04-18T10:41:35.164Z,191.90
2024-04-18T10:42:35.377Z,191.98
2024-04-18T10:43:35.388Z,192.07
2024-04-18T10:44:35.447Z,190.91
2024-04-18T10:45:35.589Z,191.64
2024-04-18T10:46:35.660Z,192.56
2024-04-18T10:47:35.883Z,191.47
2024-04-18T10:48:36.102Z,191.86
2024-04-18T10:49:35.996Z,191.58
2024-04-18T10:50:36.178Z,189.27
2024-04-18T10:51:36.260Z,189.20
2024-04-18T10:52:37.140Z,189.28
2024-04-18T10:53:36.120Z,189.54
2024-04-18T10:54:36.229Z,189.89
2024-04-18T10:55:36.123Z,188.88
2024-04-18T10:56:36.176Z,190.10
2024-04-18T10:57:36.140Z,189.65
2024-04-18T10:58:36.147Z,190.23
2024-04-18T10:59:36.154Z,188.25
2024-04-18T11:00:36.172Z,187.86
2024-04-18T11:01:36.973Z,186.18
2024-04-18T11:02:36.191Z,185.82
2024-04-18T11:03:36.367Z,184.84
2024-04-18T11:04:36.258Z,185.28
2024-04-18T11:05:36.561Z,183.42
2024-04-18T11:06:36.448Z,182.32
2024-04-18T11:07:36.598Z,182.21
2024-04-18T11:08:36.619Z,180.67
2024-04-18T11:09:36.704Z,181.92
2024-04-18T11:10:37.034Z,179.65
2024-04-18T11:11:37.148Z,178.45
2024-04-18T11:12:37.006Z,178.68
2024-04-18T11:13:37.060Z,178.50
2024-04-18T11:14:37.144Z,177.79
2024-04-18T11:15:37.804Z,176.16
2024-04-18T11:16:37.318Z,174.23
2024-04-18T11:17:37.384Z,175.57
2024-04-18T11:18:37.521Z,173.43
2024-04-18T11:19:37.381Z,172.94
2024-04-18T11:20:37.404Z,172.34
2024-04-18T11:21:37.524Z,171.43
2024-04-18T11:22:37.486Z,169.15
2024-04-18T11:23:44.536Z,169.32
2024-04-18T11:24:38.567Z,169.34
2024-04-18T11:25:37.575Z,166.82
2024-04-18T11:26:37.523Z,165.59
2024-04-18T11:27:37.540Z,165.38
2024-04-18T11:28:37.538Z,164.93
2024-04-18T11:29:37.549Z,164.12
2024-04-18T11:30:37.578Z,162.14
2024-04-18T11:31:37.583Z,161.11
2024-04-18T11:32:37.682Z,161.56
2024-04-18T11:33:37.664Z,162.57
2024-04-18T11:34:37.583Z,161.43
2024-04-18T11:35:38.054Z,162.68
2024-04-18T11:36:37.914Z,161.08
2024-04-18T11:37:37.895Z,162.58
2024-04-18T11:38:37.976Z,159.49
2024-04-18T11:39:38.123Z,158.51
2024-04-18T11:40:38.161Z,157.86
2024-04-18T11:41:38.253Z,156.04
2024-04-18T11:42:38.377Z,157.78
2024-04-18T11:43:38.469Z,157.17
2024-04-18T11:44:38.586Z,155.48
2024-04-18T11:45:38.744Z,155.16
2024-04-18T11:46:38.728Z,155.12
2024-04-18T11:47:38.972Z,151.72
2024-04-18T11:48:39.067Z,152.39
2024-04-18T11:49:39.555Z,152.22
2024-04-18T11:50:39.068Z,152.06
2024-04-18T11:51:39.064Z,150.96
2024-04-18T11:52:39.184Z,149.49
2024-04-18T11:53:39.299Z,149.67
2024-04-18T11:54:39.405Z,149.66
2024-04-18T11:55:39.473Z,148.16
2024-04-18T11:56:39.627Z,147.88
2024-04-18T11:57:39.699Z,146.32
2024-04-18T11:58:39.830Z,146.82
2024-04-18T11:59:39.898Z,145.70
2024-04-18T12:00:40.134Z,146.13
2024-04-18T12:01:40.057Z,145.11
2024-04-18T12:02:40.174Z,144.38
2024-04-18T12:03:40.438Z,144.04
2024-04-18T12:04:41.912Z,139.71
2024-04-18T12:05:40.374Z,137.94
2024-04-18T12:06:40.599Z,137.60
2024-04-18T12:07:40.418Z,135.46
2024-04-18T12:08:40.467Z,132.00
2024-04-18T12:09:40.554Z,134.42
2024-04-18T12:10:40.684Z,144.19
2024-04-18T12:11:40.768Z,147.96
2024-04-18T12:12:40.882Z,150.56
2024-04-18T12:13:40.940Z,150.21
2024-04-18T12:14:41.033Z,149.33
2024-04-18T12:15:41.202Z,148.39
2024-04-18T12:16:41.265Z,147.79
2024-04-18T12:17:41.308Z,141.43
2024-04-18T12:18:41.420Z,135.75
2024-04-18T12:19:42.670Z,125.86
2024-04-18T12:20:41.725Z,121.11
2024-04-18T12:21:41.748Z,117.07
2024-04-18T12:22:41.799Z,113.54
2024-04-18T12:23:41.803Z,112.33
2024-04-18T12:24:41.855Z,110.04
2024-04-18T12:25:41.853Z,107.90
2024-04-18T12:26:41.880Z,108.09
2024-04-18T12:27:41.922Z,108.25
2024-04-18T12:28:41.939Z,107.89
2024-04-18T12:29:41.960Z,106.62
2024-04-18T12:30:42.048Z,107.03
2024-04-18T12:31:42.048Z,105.87
2024-04-18T12:32:42.232Z,107.46
2024-04-18T12:33:42.302Z,106.14
2024-04-18T12:34:42.401Z,106.34
2024-04-18T12:35:42.603Z,107.01
2024-04-18T12:36:42.562Z,106.38
2024-04-18T12:37:42.678Z,106.52
2024-04-18T12:38:42.763Z,105.96
2024-04-18T12:39:42.938Z,104.45
2024-04-18T12:40:42.977Z,103.62
2024-04-18T12:41:43.005Z,103.35
2024-04-18T12:42:43.162Z,102.31
2024-04-18T12:43:43.195Z,103.26
2024-04-18T12:44:43.301Z,103.72
2024-04-18T12:45:43.460Z,104.42